createdAt,value
2022-12-06T00:00:47.658Z,1.60
2022-12-06T00:03:14.678Z,1.60
2022-12-06T00:05:46.097Z,1.60
2022-12-06T00:08:13.495Z,1.60
2022-12-06T00:10:40.060Z,1.60
2022-12-06T00:13:06.978Z,1.60
2022-12-06T00:15:35.354Z,1.60
2022-12-06T00:18:01.872Z,1.70
2022-12-06T00:20:28.785Z,1.60
2022-12-06T00:22:55.481Z,1.60
2022-12-06T00:25:22.403Z,1.70
2022-12-06T00:27:49.946Z,1.70
2022-12-06T00:30:16.982Z,1.70
2022-12-06T00:32:43.758Z,1.60
2022-12-06T00:35:10.285Z,1.60
2022-12-06T00:37:37.747Z,1.60
2022-12-06T00:40:04.421Z,1.60
2022-12-06T00:42:30.929Z,1.60
2022-12-06T00:44:57.863Z,1.60
2022-12-06T00:47:24.784Z,1.60
2022-12-06T00:49:51.329Z,1.60
2022-12-06T00:52:17.825Z,1.50
2022-12-06T00:54:44.746Z,1.50
2022-12-06T00:57:11.345Z,1.60
2022-12-06T00:59:38.271Z,1.60
2022-12-06T01:02:07.536Z,1.60
2022-12-06T01:04:34.091Z,1.60
2022-12-06T01:07:00.806Z,1.50
2022-12-06T01:09:31.200Z,1.50
2022-12-06T01:11:58.483Z,1.50
2022-12-06T01:14:25.519Z,1.50
2022-12-06T01:16:52.470Z,1.60
2022-12-06T01:19:19.444Z,1.60
2022-12-06T01:21:45.981Z,1.60
2022-12-06T01:24:12.883Z,1.60
2022-12-06T01:26:39.352Z,1.60
2022-12-06T01:29:05.849Z,1.60
2022-12-06T01:31:38.241Z,1.60
2022-12-06T01:34:07.000Z,1.60
2022-12-06T01:36:33.980Z,1.60
2022-12-06T01:39:02.213Z,1.60
2022-12-06T01:41:28.734Z,1.60
2022-12-06T01:43:56.737Z,2.90
2022-12-06T01:46:35.603Z,1.60
2022-12-06T01:49:02.552Z,1.50
2022-12-06T01:51:29.286Z,1.50
2022-12-06T01:53:56.391Z,1.50
2022-12-06T01:56:22.917Z,1.50
2022-12-06T01:58:51.247Z,1.60
2022-12-06T02:01:17.971Z,2.30
2022-12-06T02:03:45.660Z,1.60
2022-12-06T02:06:12.433Z,1.50
2022-12-06T02:08:39.600Z,1.50
2022-12-06T02:11:06.269Z,1.50
2022-12-06T02:13:33.641Z,1.50
2022-12-06T02:16:09.682Z,1.50
2022-12-06T02:18:56.679Z,1.50
2022-12-06T02:21:42.441Z,1.50
2022-12-06T02:24:29.631Z,1.50
2022-12-06T02:27:11.927Z,1.60
2022-12-06T02:29:47.561Z,1.60
2022-12-06T02:32:21.042Z,1.60
2022-12-06T02:35:00.317Z,1.50
2022-12-06T02:37:31.252Z,1.50
2022-12-06T02:40:01.393Z,1.60
2022-12-06T02:42:35.825Z,2.30
2022-12-06T02:45:09.924Z,1.50
2022-12-06T02:50:28.855Z,1.50
2022-12-06T02:52:57.712Z,1.50
2022-12-06T02:55:24.751Z,2.20
2022-12-06T02:57:53.334Z,1.60
2022-12-06T03:00:39.046Z,1.50
2022-12-06T03:03:24.015Z,1.50
2022-12-06T03:05:56.935Z,1.40
2022-12-06T03:08:31.870Z,1.50
2022-12-06T03:11:00.596Z,1.50
2022-12-06T03:13:35.370Z,2.20
2022-12-06T03:16:17.551Z,1.50
2022-12-06T03:18:58.858Z,1.50
2022-12-06T03:21:45.609Z,1.50
2022-12-06T03:24:13.974Z,1.60
2022-12-06T03:26:41.067Z,1.50
2022-12-06T03:29:08.861Z,2.80
2022-12-06T03:31:37.046Z,2.50
2022-12-06T03:34:06.726Z,1.50
2022-12-06T03:36:34.002Z,1.70
2022-12-06T03:39:05.336Z,1.50
2022-12-06T03:41:45.335Z,1.60
2022-12-06T03:44:12.307Z,1.40
2022-12-06T03:46:41.177Z,1.50
2022-12-06T03:49:11.732Z,1.50
2022-12-06T03:51:39.559Z,1.50
2022-12-06T03:54:07.377Z,1.60
2022-12-06T03:56:37.838Z,1.50
2022-12-06T03:59:05.425Z,1.50
2022-12-06T04:01:32.404Z,1.50
2022-12-06T04:03:58.976Z,1.50
2022-12-06T04:06:25.968Z,1.50
2022-12-06T04:08:52.433Z,1.50
2022-12-06T04:11:19.386Z,1.50
2022-12-06T04:13:46.285Z,1.50
2022-12-06T04:16:31.915Z,1.60
2022-12-06T04:18:58.474Z,1.50
2022-12-06T04:21:34.569Z,1.60
2022-12-06T04:24:02.582Z,1.60
2022-12-06T04:26:29.048Z,1.60
2022-12-06T04:29:14.624Z,1.60
2022-12-06T04:31:59.765Z,1.60
2022-12-06T04:34:45.485Z,1.60
2022-12-06T04:37:30.533Z,1.60
2022-12-06T04:39:57.622Z,1.60
2022-12-06T04:42:43.073Z,1.60
2022-12-06T04:45:10.176Z,1.60
2022-12-06T04:47:36.670Z,1.60
2022-12-06T04:50:04.130Z,1.60
2022-12-06T04:52:35.396Z,1.60
2022-12-06T04:55:02.098Z,1.60
2022-12-06T04:57:29.022Z,1.60
2022-12-06T04:59:55.510Z,1.60
2022-12-06T05:02:22.021Z,1.70
2022-12-06T05:04:49.113Z,1.70
2022-12-06T05:07:15.586Z,1.70
2022-12-06T05:09:42.091Z,1.70
2022-12-06T05:12:09.075Z,1.70
2022-12-06T05:14:35.635Z,1.70
2022-12-06T05:17:02.816Z,1.70
2022-12-06T05:19:30.294Z,1.60
2022-12-06T05:21:56.854Z,1.70
2022-12-06T05:24:23.399Z,1.70
2022-12-06T05:26:50.314Z,1.70
2022-12-06T05:29:17.913Z,1.70
2022-12-06T05:31:44.507Z,1.70
2022-12-06T05:34:11.151Z,1.60
2022-12-06T05:36:38.407Z,1.60
2022-12-06T05:39:04.994Z,1.60
2022-12-06T05:41:31.939Z,1.70
2022-12-06T05:43:58.454Z,1.70
2022-12-06T05:46:25.002Z,1.70
2022-12-06T05:48:52.007Z,1.70
2022-12-06T05:51:18.481Z,1.70
2022-12-06T05:53:45.652Z,1.70
2022-12-06T05:56:12.456Z,1.70
2022-12-06T05:58:39.179Z,1.70
2022-12-06T06:01:07.226Z,1.70
2022-12-06T06:03:34.634Z,1.70
2022-12-06T06:06:02.430Z,1.60
2022-12-06T06:08:29.877Z,1.60
2022-12-06T06:10:56.801Z,1.60
2022-12-06T06:13:23.749Z,1.70
2022-12-06T06:15:50.363Z,1.70
2022-12-06T06:18:17.374Z,1.70
2022-12-06T06:20:54.907Z,1.70
2022-12-06T06:23:21.469Z,1.60
2022-12-06T06:25:47.974Z,1.60
2022-12-06T06:28:14.997Z,1.70
2022-12-06T06:30:44.631Z,1.70
2022-12-06T06:33:11.811Z,1.70
2022-12-06T06:35:38.784Z,1.70
2022-12-06T06:38:05.773Z,1.70
2022-12-06T06:40:32.719Z,1.70
2022-12-06T06:43:18.559Z,1.80
2022-12-06T06:45:55.562Z,1.80
2022-12-06T06:48:23.364Z,1.70
2022-12-06T06:50:55.457Z,1.70
2022-12-06T06:53:25.325Z,1.80
2022-12-06T06:55:53.600Z,1.70
2022-12-06T06:58:20.076Z,1.70
2022-12-06T07:00:52.065Z,1.70
2022-12-06T07:03:20.196Z,1.70
2022-12-06T07:06:00.945Z,1.80
2022-12-06T07:08:27.750Z,1.80
2022-12-06T07:10:54.682Z,1.70
2022-12-06T07:13:22.635Z,1.80
2022-12-06T07:15:49.596Z,1.90
2022-12-06T07:18:19.822Z,1.70
2022-12-06T07:20:47.251Z,2.50
2022-12-06T07:23:13.942Z,1.80
2022-12-06T07:25:40.505Z,1.80
2022-12-06T07:28:07.295Z,1.80
2022-12-06T07:30:34.345Z,1.80
2022-12-06T07:33:00.905Z,1.80
2022-12-06T07:35:48.412Z,1.80
2022-12-06T07:38:14.382Z,1.80
2022-12-06T07:41:02.803Z,1.90
2022-12-06T07:43:46.817Z,1.80
2022-12-06T07:46:13.444Z,1.80
2022-12-06T07:48:39.956Z,1.80
2022-12-06T07:51:07.576Z,1.80
2022-12-06T07:53:34.599Z,1.80
2022-12-06T07:56:07.899Z,1.80
2022-12-06T07:58:34.863Z,1.80
2022-12-06T08:01:02.429Z,1.90
2022-12-06T08:03:29.073Z,1.90
2022-12-06T08:05:56.377Z,2.00
2022-12-06T08:08:28.134Z,2.00
2022-12-06T08:10:55.122Z,2.00
2022-12-06T08:13:22.758Z,2.00
2022-12-06T08:15:50.051Z,2.10
2022-12-06T08:18:16.621Z,2.10
2022-12-06T08:20:43.703Z,2.10
2022-12-06T08:23:10.593Z,2.20
2022-12-06T08:25:37.097Z,2.20
2022-12-06T08:28:03.662Z,2.20
2022-12-06T08:30:30.172Z,2.30
2022-12-06T08:32:56.669Z,2.30
2022-12-06T08:35:23.165Z,2.40
2022-12-06T08:37:50.078Z,2.40
2022-12-06T08:40:16.617Z,2.40
2022-12-06T08:42:46.214Z,2.50
2022-12-06T08:45:12.860Z,2.50
2022-12-06T08:47:39.744Z,2.50
2022-12-06T08:50:06.569Z,2.50
2022-12-06T08:52:33.471Z,2.50
2022-12-06T08:54:59.942Z,2.50
2022-12-06T08:57:26.416Z,2.50
2022-12-06T08:59:53.411Z,2.60
2022-12-06T09:02:19.960Z,2.50
2022-12-06T09:04:50.149Z,2.50
2022-12-06T09:07:17.103Z,2.60
2022-12-06T09:09:45.972Z,2.60
2022-12-06T09:12:13.094Z,2.60
2022-12-06T09:14:39.981Z,2.60
2022-12-06T09:17:06.965Z,2.60
2022-12-06T09:19:34.381Z,2.60
2022-12-06T09:22:01.587Z,2.60
2022-12-06T09:24:28.056Z,2.70
2022-12-06T09:26:54.596Z,3.70
2022-12-06T09:29:21.562Z,2.60
2022-12-06T09:31:48.478Z,2.60
2022-12-06T09:34:15.268Z,2.60
2022-12-06T09:36:56.542Z,2.60
2022-12-06T09:39:25.949Z,2.70
2022-12-06T09:42:07.802Z,2.70
2022-12-06T09:44:53.456Z,2.80
2022-12-06T09:47:38.773Z,2.90
2022-12-06T09:50:24.177Z,3.00
2022-12-06T09:52:51.032Z,3.00
2022-12-06T09:55:17.474Z,3.10
2022-12-06T09:57:47.136Z,3.20
2022-12-06T10:00:23.189Z,3.20
2022-12-06T10:03:02.198Z,3.30
2022-12-06T10:05:38.839Z,3.30
2022-12-06T10:08:14.280Z,3.40
2022-12-06T10:10:52.118Z,3.50
2022-12-06T10:13:18.588Z,3.60
2022-12-06T10:15:57.425Z,3.70
2022-12-06T10:18:27.104Z,3.80
2022-12-06T10:20:57.608Z,3.90
2022-12-06T10:23:27.202Z,3.90
2022-12-06T10:25:53.654Z,3.90
2022-12-06T10:28:29.054Z,3.00
2022-12-06T10:30:56.460Z,4.00
2022-12-06T10:33:37.895Z,4.00
2022-12-06T10:36:05.983Z,4.10
2022-12-06T10:38:32.433Z,4.10
2022-12-06T10:41:03.360Z,4.20
2022-12-06T10:43:33.741Z,4.30
2022-12-06T10:46:25.867Z,4.30
2022-12-06T10:49:02.585Z,4.30
2022-12-06T10:51:39.948Z,4.30
2022-12-06T10:54:13.074Z,4.30
2022-12-06T10:56:42.061Z,4.30
2022-12-06T10:59:27.303Z,4.30
2022-12-06T11:01:57.661Z,4.30
2022-12-06T11:04:26.457Z,4.30
2022-12-06T11:06:55.495Z,4.30
2022-12-06T11:09:24.973Z,4.30
2022-12-06T11:11:52.026Z,4.30
2022-12-06T11:14:23.582Z,4.20
2022-12-06T11:17:05.058Z,4.20
2022-12-06T11:19:38.790Z,4.20
2022-12-06T11:22:22.478Z,4.20
2022-12-06T11:25:07.956Z,4.20
2022-12-06T11:27:38.141Z,4.20
2022-12-06T11:30:14.602Z,4.30
2022-12-06T11:32:44.450Z,4.30
2022-12-06T11:35:19.498Z,4.30
2022-12-06T11:37:46.703Z,4.30
2022-12-06T11:40:23.566Z,4.30
2022-12-06T11:42:50.562Z,4.30
2022-12-06T11:45:21.646Z,4.30
2022-12-06T11:47:48.324Z,4.30
2022-12-06T11:50:17.592Z,4.30
2022-12-06T11:52:47.571Z,4.30
2022-12-06T11:55:18.712Z,4.30
2022-12-06T11:58:04.284Z,4.30
2022-12-06T12:00:31.395Z,4.30
2022-12-06T12:02:58.024Z,4.40
2022-12-06T12:05:26.272Z,4.40
2022-12-06T12:08:00.987Z,4.40
2022-12-06T12:10:27.934Z,4.50
2022-12-06T12:13:13.275Z,4.50
2022-12-06T12:15:47.770Z,4.50
2022-12-06T12:18:34.924Z,4.50
2022-12-06T12:21:02.894Z,4.50
2022-12-06T12:23:32.044Z,4.60
2022-12-06T12:26:00.569Z,4.60
2022-12-06T12:28:29.137Z,4.60
2022-12-06T12:30:57.185Z,4.60
2022-12-06T12:33:24.589Z,4.60
2022-12-06T12:35:56.684Z,4.60
2022-12-06T12:38:25.904Z,4.60
2022-12-06T12:40:54.952Z,4.60
2022-12-06T12:43:27.091Z,4.60
2022-12-06T12:46:05.108Z,4.50
2022-12-06T12:48:31.946Z,4.50
2022-12-06T12:51:00.149Z,4.50
2022-12-06T12:53:31.745Z,4.40
2022-12-06T12:56:05.680Z,4.40
2022-12-06T12:58:35.951Z,4.50
2022-12-06T13:01:07.540Z,4.40
2022-12-06T13:03:50.892Z,4.40
2022-12-06T13:06:26.046Z,4.50
2022-12-06T13:08:54.437Z,4.50
2022-12-06T13:11:21.473Z,4.40
2022-12-06T13:13:49.937Z,4.50
2022-12-06T13:16:20.915Z,4.50
2022-12-06T13:18:50.946Z,4.50
2022-12-06T13:21:22.858Z,4.50
2022-12-06T13:23:52.402Z,4.50
2022-12-06T13:26:23.032Z,4.50
2022-12-06T13:28:55.232Z,4.50
2022-12-06T13:31:24.057Z,4.50
2022-12-06T13:33:58.956Z,4.50
2022-12-06T13:36:26.418Z,4.50
2022-12-06T13:38:53.432Z,4.50
2022-12-06T13:41:54.242Z,4.40
2022-12-06T13:44:40.324Z,4.40
2022-12-06T13:47:26.192Z,4.40
2022-12-06T13:50:22.241Z,4.40
2022-12-06T13:52:48.702Z,4.40
2022-12-06T13:55:24.322Z,4.40
2022-12-06T13:58:17.270Z,4.40
2022-12-06T14:00:43.711Z,4.30
2022-12-06T14:03:13.010Z,4.30
2022-12-06T14:08:27.015Z,4.30
2022-12-06T14:11:04.282Z,4.30
2022-12-06T14:13:30.742Z,4.30
2022-12-06T14:15:57.229Z,4.30
2022-12-06T14:18:26.154Z,4.30
2022-12-06T14:20:54.005Z,4.30
2022-12-06T14:23:25.477Z,4.20
2022-12-06T14:25:51.974Z,4.20
2022-12-06T14:28:21.493Z,4.20
2022-12-06T14:30:48.153Z,4.20
2022-12-06T14:33:24.379Z,4.10
2022-12-06T14:35:52.357Z,4.10
2022-12-06T14:38:23.147Z,4.10
2022-12-06T14:41:09.126Z,4.10
2022-12-06T14:43:35.684Z,4.10
2022-12-06T14:46:04.275Z,4.10
2022-12-06T14:48:51.565Z,4.10
2022-12-06T14:51:23.661Z,4.00
2022-12-06T14:53:50.872Z,4.00
2022-12-06T14:56:20.344Z,4.00
2022-12-06T14:58:47.334Z,4.00
2022-12-06T15:01:16.824Z,4.00
2022-12-06T15:03:44.435Z,4.00
2022-12-06T15:06:19.047Z,4.00
2022-12-06T15:08:51.839Z,4.00
2022-12-06T15:11:41.472Z,4.00
2022-12-06T15:14:12.587Z,4.00
2022-12-06T15:16:39.617Z,4.00
2022-12-06T15:19:10.424Z,3.90
2022-12-06T15:21:37.402Z,3.90
2022-12-06T15:24:04.039Z,3.90
2022-12-06T15:26:30.980Z,3.90
2022-12-06T15:28:57.888Z,3.90
2022-12-06T15:31:27.021Z,3.90
2022-12-06T15:33:54.434Z,3.90
2022-12-06T15:36:27.105Z,3.90
2022-12-06T15:38:54.033Z,3.90
2022-12-06T15:41:22.046Z,3.90
2022-12-06T15:43:49.651Z,3.90
2022-12-06T15:46:20.524Z,3.90
2022-12-06T15:48:47.569Z,3.90
2022-12-06T15:51:20.161Z,3.80
2022-12-06T15:53:48.137Z,3.80
2022-12-06T15:56:16.710Z,3.70
2022-12-06T15:58:44.019Z,3.70
2022-12-06T16:01:18.764Z,3.70
2022-12-06T16:03:46.320Z,3.70
2022-12-06T16:06:13.936Z,3.70
2022-12-06T16:08:41.664Z,3.70
2022-12-06T16:11:12.689Z,3.70
2022-12-06T16:13:39.866Z,3.70
2022-12-06T16:16:07.198Z,3.70
2022-12-06T16:18:33.721Z,3.80
2022-12-06T16:21:00.690Z,3.70
2022-12-06T16:24:12.688Z,3.70
2022-12-06T16:26:35.994Z,3.70
2022-12-06T16:29:03.554Z,3.60
2022-12-06T16:31:32.382Z,3.60
2022-12-06T16:34:02.393Z,3.60
2022-12-06T16:36:29.972Z,3.60
2022-12-06T16:38:59.105Z,3.60
2022-12-06T16:41:35.675Z,3.60
2022-12-06T16:44:02.949Z,3.50
2022-12-06T16:46:36.698Z,3.60
2022-12-06T16:49:44.139Z,3.50
2022-12-06T16:51:59.629Z,3.50
2022-12-06T16:54:26.121Z,3.50
2022-12-06T16:56:53.050Z,3.50
2022-12-06T16:59:20.041Z,3.50
2022-12-06T17:01:47.880Z,3.50
2022-12-06T17:04:14.375Z,3.40
2022-12-06T17:06:40.942Z,3.40
2022-12-06T17:09:07.870Z,3.40
2022-12-06T17:11:54.667Z,3.40
2022-12-06T17:14:25.181Z,3.30
2022-12-06T17:16:52.207Z,3.30
2022-12-06T17:19:20.749Z,3.30
2022-12-06T17:21:48.247Z,3.30
2022-12-06T17:24:15.209Z,3.30
2022-12-06T17:26:42.130Z,3.30
2022-12-06T17:29:08.873Z,3.30
2022-12-06T17:31:36.500Z,3.30
2022-12-06T17:34:03.863Z,3.30
2022-12-06T17:36:31.492Z,3.30
2022-12-06T17:38:58.424Z,3.30
2022-12-06T17:41:51.419Z,3.20
2022-12-06T17:44:19.265Z,3.20
2022-12-06T17:46:46.196Z,3.10
2022-12-06T17:49:13.918Z,3.10
2022-12-06T17:51:40.387Z,3.10
2022-12-06T17:54:09.409Z,3.10
2022-12-06T17:56:43.825Z,3.10
2022-12-06T17:59:12.395Z,3.10
2022-12-06T18:02:13.068Z,3.10
2022-12-06T18:04:26.658Z,3.10
2022-12-06T18:06:53.894Z,3.10
2022-12-06T18:09:20.666Z,3.00
2022-12-06T18:11:48.843Z,3.00
2022-12-06T18:14:15.902Z,3.00
2022-12-06T18:16:43.268Z,3.00
2022-12-06T18:19:15.094Z,3.00
2022-12-06T18:21:42.459Z,3.00
2022-12-06T18:24:21.370Z,3.00
2022-12-06T18:26:48.906Z,2.90
2022-12-06T18:29:16.731Z,3.00
2022-12-06T18:31:43.808Z,2.80
2022-12-06T18:34:10.897Z,2.80
2022-12-06T18:36:37.813Z,2.80
2022-12-06T18:39:10.902Z,2.80
2022-12-06T18:41:40.528Z,2.80
2022-12-06T18:44:08.475Z,2.80
2022-12-06T18:46:34.992Z,2.80
2022-12-06T18:49:02.996Z,3.00
2022-12-06T18:51:30.621Z,2.80
2022-12-06T18:54:05.372Z,2.80
2022-12-06T18:56:33.423Z,2.80
2022-12-06T18:59:00.720Z,2.70
2022-12-06T19:01:28.925Z,2.70
2022-12-06T19:03:56.448Z,2.60
2022-12-06T19:06:24.373Z,2.60
2022-12-06T19:08:51.569Z,2.60
2022-12-06T19:11:18.496Z,2.60
2022-12-06T19:13:52.477Z,2.50
2022-12-06T19:16:25.911Z,2.50
2022-12-06T19:18:53.409Z,2.40
2022-12-06T19:21:20.430Z,2.40
2022-12-06T19:23:46.978Z,2.40
2022-12-06T19:26:13.727Z,2.30
2022-12-06T19:28:41.077Z,2.20
2022-12-06T19:31:09.486Z,2.20
2022-12-06T19:33:38.173Z,2.30
2022-12-06T19:36:07.153Z,2.20
2022-12-06T19:38:34.579Z,2.20
2022-12-06T19:41:05.141Z,2.10
2022-12-06T19:43:50.421Z,2.10
2022-12-06T19:46:21.074Z,2.10
2022-12-06T19:48:48.329Z,2.00
2022-12-06T19:51:15.238Z,2.00
2022-12-06T19:53:42.244Z,2.00
2022-12-06T19:56:10.749Z,1.90
2022-12-06T19:58:37.576Z,1.80
2022-12-06T20:01:11.844Z,1.80
2022-12-06T20:03:38.357Z,1.80
2022-12-06T20:06:12.842Z,1.80
2022-12-06T20:08:44.659Z,1.80
2022-12-06T20:11:30.845Z,1.70
2022-12-06T20:14:01.185Z,1.70
2022-12-06T20:16:27.701Z,1.60
2022-12-06T20:18:54.241Z,1.60
2022-12-06T20:21:21.209Z,1.60
2022-12-06T20:23:47.725Z,2.40
2022-12-06T20:26:17.539Z,1.50
2022-12-06T20:28:45.025Z,1.50
2022-12-06T20:31:12.650Z,1.50
2022-12-06T20:33:39.268Z,1.40
2022-12-06T20:36:10.327Z,1.40
2022-12-06T20:38:36.922Z,1.40
2022-12-06T20:41:07.254Z,1.40
2022-12-06T20:43:34.160Z,1.40
2022-12-06T20:46:14.563Z,1.40
2022-12-06T20:48:42.170Z,1.40
2022-12-06T20:51:10.135Z,1.30
2022-12-06T20:53:36.707Z,1.20
2022-12-06T20:56:04.318Z,1.20
2022-12-06T20:58:31.483Z,1.20
2022-12-06T21:00:58.988Z,1.10
2022-12-06T21:03:25.628Z,1.10
2022-12-06T21:05:58.812Z,1.10
2022-12-06T21:08:25.331Z,1.00
2022-12-06T21:11:21.103Z,1.00
2022-12-06T21:13:39.746Z,1.00
2022-12-06T21:16:07.937Z,0.90
2022-12-06T21:18:35.826Z,0.90
2022-12-06T21:21:02.744Z,1.00
2022-12-06T21:23:29.632Z,1.10
2022-12-06T21:25:56.570Z,1.10
2022-12-06T21:28:23.206Z,1.10
2022-12-06T21:30:51.671Z,1.20
2022-12-06T21:33:18.350Z,1.20
2022-12-06T21:35:45.381Z,1.20
2022-12-06T21:38:12.725Z,1.20
2022-12-06T21:40:39.232Z,1.40
2022-12-06T21:43:06.236Z,1.40
2022-12-06T21:45:36.411Z,1.50
2022-12-06T21:48:03.795Z,1.50
2022-12-06T21:50:30.250Z,1.50
2022-12-06T21:52:56.904Z,1.50
2022-12-06T21:55:23.834Z,1.50
2022-12-06T21:57:50.320Z,1.50
2022-12-06T22:00:17.613Z,1.50
2022-12-06T22:02:44.693Z,1.60
2022-12-06T22:05:11.682Z,1.60
2022-12-06T22:07:38.213Z,1.70
2022-12-06T22:10:04.969Z,1.70
2022-12-06T22:12:31.933Z,1.70
2022-12-06T22:14:58.418Z,1.60
2022-12-06T22:17:25.340Z,1.70
2022-12-06T22:19:51.799Z,1.60
2022-12-06T22:22:19.477Z,1.60
2022-12-06T22:24:46.418Z,1.60
2022-12-06T22:27:12.890Z,1.70
2022-12-06T22:29:39.397Z,1.70
2022-12-06T22:32:06.334Z,1.70
2022-12-06T22:34:32.869Z,1.70
2022-12-06T22:36:59.736Z,1.70
2022-12-06T22:39:26.202Z,1.70
2022-12-06T22:41:54.444Z,1.80
2022-12-06T22:44:20.910Z,1.80
2022-12-06T22:46:47.870Z,1.90
2022-12-06T22:49:18.003Z,1.90
2022-12-06T22:51:45.707Z,1.90
2022-12-06T22:54:13.293Z,2.00
2022-12-06T22:56:41.160Z,2.00
2022-12-06T22:59:09.328Z,2.10
2022-12-06T23:01:35.910Z,2.10
2022-12-06T23:04:04.170Z,2.20
2022-12-06T23:06:31.705Z,2.30
2022-12-06T23:08:58.197Z,2.30
2022-12-06T23:11:26.080Z,2.40
2022-12-06T23:13:53.048Z,2.40
2022-12-06T23:16:21.611Z,2.40
2022-12-06T23:18:48.358Z,2.50
2022-12-06T23:21:19.615Z,2.50
2022-12-06T23:23:47.725Z,2.60
2022-12-06T23:26:15.737Z,2.60
2022-12-06T23:28:43.153Z,2.60
2022-12-06T23:31:11.204Z,2.70
2022-12-06T23:33:38.113Z,2.70
2022-12-06T23:36:25.312Z,2.70
2022-12-06T23:38:52.110Z,2.70
2022-12-06T23:41:23.533Z,2.70
2022-12-06T23:43:50.630Z,2.80
2022-12-06T23:46:22.153Z,2.80
2022-12-06T23:48:49.501Z,2.80
2022-12-06T23:51:17.609Z,2.80
2022-12-06T23:53:44.342Z,2.80
2022-12-06T23:56:12.973Z,2.80
2022-12-06T23:58:40.011Z,2.80
